createdAt,value
2024-03-07T00:00:44.483Z,0.00
2024-03-07T00:01:44.442Z,0.00
2024-03-07T00:02:44.472Z,0.00
2024-03-07T00:03:44.460Z,0.00
2024-03-07T00:04:44.473Z,0.00
2024-03-07T00:05:44.530Z,0.00
2024-03-07T00:06:44.544Z,0.00
2024-03-07T00:07:44.496Z,0.00
2024-03-07T00:08:44.536Z,0.00
2024-03-07T00:09:44.509Z,0.00
2024-03-07T00:10:44.547Z,0.00
2024-03-07T00:11:44.585Z,0.00
2024-03-07T00:12:44.520Z,0.00
2024-03-07T00:13:44.534Z,0.00
2024-03-07T00:14:44.572Z,0.00
2024-03-07T00:15:44.575Z,0.00
2024-03-07T00:16:44.582Z,0.00
2024-03-07T00:17:44.714Z,0.00
2024-03-07T00:18:44.645Z,0.00
2024-03-07T00:19:44.594Z,0.00
2024-03-07T00:20:44.687Z,0.00
2024-03-07T00:21:44.626Z,0.00
2024-03-07T00:22:44.745Z,0.00
2024-03-07T00:23:44.652Z,0.00
2024-03-07T00:24:44.633Z,0.00
2024-03-07T00:25:44.634Z,0.00
2024-03-07T00:26:44.673Z,0.00
2024-03-07T00:27:44.626Z,0.00
2024-03-07T00:28:44.648Z,0.00
2024-03-07T00:29:44.660Z,0.00
2024-03-07T00:30:44.644Z,0.00
2024-03-07T00:31:44.650Z,0.00
2024-03-07T00:32:44.746Z,0.00
2024-03-07T00:33:57.361Z,0.00
2024-03-07T00:34:44.737Z,0.00
2024-03-07T00:35:44.709Z,0.00
2024-03-07T00:36:44.721Z,0.00
2024-03-07T00:37:44.749Z,0.00
2024-03-07T00:38:44.806Z,0.00
2024-03-07T00:39:44.708Z,0.00
2024-03-07T00:40:44.727Z,0.00
2024-03-07T00:41:44.751Z,0.00
2024-03-07T00:42:44.758Z,0.00
2024-03-07T00:43:44.761Z,0.00
2024-03-07T00:44:44.868Z,0.00
2024-03-07T00:45:44.767Z,0.00
2024-03-07T00:46:44.769Z,0.00
2024-03-07T00:47:44.887Z,0.00
2024-03-07T00:48:44.810Z,0.00
2024-03-07T00:49:44.798Z,0.00
2024-03-07T00:50:44.846Z,0.00
2024-03-07T00:51:44.795Z,0.00
2024-03-07T00:52:44.813Z,0.00
2024-03-07T00:53:44.971Z,0.00
2024-03-07T00:54:44.868Z,0.00
2024-03-07T00:55:44.831Z,0.00
2024-03-07T00:56:44.852Z,0.00
2024-03-07T00:57:44.843Z,0.00
2024-03-07T00:58:44.840Z,0.00
2024-03-07T00:59:44.895Z,0.00
2024-03-07T01:00:44.868Z,0.00
2024-03-07T01:01:44.917Z,0.00
2024-03-07T01:02:45.078Z,0.00
2024-03-07T01:03:44.887Z,0.00
2024-03-07T01:04:44.891Z,0.00
2024-03-07T01:05:44.992Z,0.00
2024-03-07T01:06:44.896Z,0.00
2024-03-07T01:07:44.912Z,0.00
2024-03-07T01:08:44.978Z,0.00
2024-03-07T01:09:44.942Z,0.00
2024-03-07T01:10:45.045Z,0.00
2024-03-07T01:11:45.133Z,0.00
2024-03-07T01:12:44.949Z,0.00
2024-03-07T01:13:44.948Z,0.00
2024-03-07T01:14:45.035Z,0.00
2024-03-07T01:15:44.975Z,0.00
2024-03-07T01:16:44.975Z,0.00
2024-03-07T01:17:45.076Z,0.00
2024-03-07T01:18:45.030Z,0.00
2024-03-07T01:19:45.012Z,0.00
2024-03-07T01:20:45.076Z,0.00
2024-03-07T01:21:45.053Z,0.00
2024-03-07T01:22:45.090Z,0.00
2024-03-07T01:23:45.140Z,0.00
2024-03-07T01:24:45.134Z,0.00
2024-03-07T01:25:45.138Z,0.00
2024-03-07T01:26:45.263Z,0.00
2024-03-07T01:27:45.163Z,0.00
2024-03-07T01:28:45.168Z,0.00
2024-03-07T01:29:45.194Z,0.00
2024-03-07T01:30:45.185Z,0.00
2024-03-07T01:31:45.185Z,0.00
2024-03-07T01:32:45.300Z,0.00
2024-03-07T01:33:45.182Z,0.00
2024-03-07T01:34:45.196Z,0.00
2024-03-07T01:35:45.259Z,0.00
2024-03-07T01:36:45.225Z,0.00
2024-03-07T01:37:45.222Z,0.00
2024-03-07T01:38:45.333Z,0.00
2024-03-07T01:39:45.240Z,0.00
2024-03-07T01:40:45.244Z,0.00
2024-03-07T01:41:45.274Z,0.00
2024-03-07T01:42:45.313Z,0.00
2024-03-07T01:43:45.281Z,0.00
2024-03-07T01:44:45.454Z,0.00
2024-03-07T01:45:45.285Z,0.00
2024-03-07T01:46:45.287Z,0.00
2024-03-07T01:47:45.316Z,0.00
2024-03-07T01:48:45.374Z,0.00
2024-03-07T01:49:45.293Z,0.00
2024-03-07T01:50:45.342Z,0.00
2024-03-07T01:51:45.316Z,0.00
2024-03-07T01:52:45.316Z,0.00
2024-03-07T01:53:45.381Z,0.00
2024-03-07T01:54:45.349Z,0.00
2024-03-07T01:55:45.344Z,0.00
2024-03-07T01:56:45.352Z,0.00
2024-03-07T01:57:45.356Z,0.00
2024-03-07T01:58:45.415Z,0.00
2024-03-07T01:59:45.475Z,0.00
2024-03-07T02:00:45.462Z,0.00
2024-03-07T02:02:45.430Z,0.00
2024-03-07T02:03:45.402Z,0.00
2024-03-07T02:04:46.168Z,0.00
2024-03-07T02:05:45.447Z,0.00
2024-03-07T02:06:45.425Z,0.00
2024-03-07T02:07:45.427Z,0.00
2024-03-07T02:08:45.465Z,0.00
2024-03-07T02:09:45.444Z,0.00
2024-03-07T02:10:45.491Z,0.00
2024-03-07T02:11:45.537Z,0.00
2024-03-07T02:12:45.476Z,0.00
2024-03-07T02:13:45.487Z,0.00
2024-03-07T02:14:45.566Z,0.00
2024-03-07T02:15:45.491Z,0.00
2024-03-07T02:16:45.491Z,0.00
2024-03-07T02:17:45.560Z,0.00
2024-03-07T02:18:45.571Z,0.00
2024-03-07T02:19:45.485Z,0.00
2024-03-07T02:20:45.610Z,0.00
2024-03-07T02:21:45.521Z,0.00
2024-03-07T02:22:45.525Z,0.00
2024-03-07T02:23:45.575Z,0.00
2024-03-07T02:24:45.535Z,0.00
2024-03-07T02:25:45.552Z,0.00
2024-03-07T02:26:45.597Z,0.00
2024-03-07T02:27:45.565Z,0.00
2024-03-07T02:28:45.566Z,0.00
2024-03-07T02:29:45.594Z,0.00
2024-03-07T02:30:45.650Z,0.00
2024-03-07T02:31:45.609Z,0.00
2024-03-07T02:32:45.713Z,0.00
2024-03-07T02:34:45.651Z,0.00
2024-03-07T02:35:45.732Z,0.00
2024-03-07T02:36:45.654Z,0.00
2024-03-07T02:37:45.648Z,0.00
2024-03-07T02:38:45.745Z,0.00
2024-03-07T02:39:45.660Z,0.00
2024-03-07T02:40:45.655Z,0.00
2024-03-07T02:41:45.725Z,0.00
2024-03-07T02:42:45.678Z,0.00
2024-03-07T02:43:45.669Z,0.00
2024-03-07T02:44:45.745Z,0.00
2024-03-07T02:45:45.694Z,0.00
2024-03-07T02:46:45.741Z,0.00
2024-03-07T02:47:46.008Z,0.00
2024-03-07T02:48:45.801Z,0.00
2024-03-07T02:49:45.808Z,0.00
2024-03-07T02:50:45.869Z,0.00
2024-03-07T02:51:45.824Z,0.00
2024-03-07T02:52:45.835Z,0.00
2024-03-07T02:53:45.910Z,0.00
2024-03-07T02:54:45.846Z,0.00
2024-03-07T02:55:45.866Z,0.00
2024-03-07T02:56:45.904Z,0.00
2024-03-07T02:57:45.893Z,0.00
2024-03-07T02:58:45.885Z,0.00
2024-03-07T02:59:45.906Z,0.00
2024-03-07T03:00:45.895Z,0.00
2024-03-07T03:01:45.937Z,0.00
2024-03-07T03:02:46.008Z,0.00
2024-03-07T03:03:45.913Z,0.00
2024-03-07T03:04:45.915Z,0.00
2024-03-07T03:05:45.948Z,0.00
2024-03-07T03:06:45.942Z,0.00
2024-03-07T03:07:45.939Z,0.00
2024-03-07T03:08:45.993Z,0.00
2024-03-07T03:09:45.951Z,0.00
2024-03-07T03:10:45.972Z,0.00
2024-03-07T03:11:46.137Z,0.00
2024-03-07T03:13:46.031Z,0.00
2024-03-07T03:14:46.033Z,0.00
2024-03-07T03:15:45.976Z,0.00
2024-03-07T03:16:48.600Z,0.00
2024-03-07T03:17:46.024Z,0.00
2024-03-07T03:18:46.017Z,0.00
2024-03-07T03:19:45.986Z,0.00
2024-03-07T03:20:46.007Z,0.00
2024-03-07T03:21:45.990Z,0.00
2024-03-07T03:22:46.023Z,0.00
2024-03-07T03:23:46.206Z,0.00
2024-03-07T03:24:46.012Z,0.00
2024-03-07T03:25:46.038Z,0.00
2024-03-07T03:26:46.076Z,0.00
2024-03-07T03:27:46.077Z,0.00
2024-03-07T03:28:46.071Z,0.00
2024-03-07T03:29:46.173Z,0.00
2024-03-07T03:30:46.090Z,0.00
2024-03-07T03:31:46.103Z,0.00
2024-03-07T03:32:46.196Z,0.00
2024-03-07T03:33:46.175Z,0.00
2024-03-07T03:34:46.162Z,0.00
2024-03-07T03:35:46.216Z,0.00
2024-03-07T03:36:46.121Z,0.00
2024-03-07T03:37:46.162Z,0.00
2024-03-07T03:38:46.192Z,0.00
2024-03-07T03:39:46.159Z,0.00
2024-03-07T03:40:46.165Z,0.00
2024-03-07T03:41:46.194Z,0.00
2024-03-07T03:42:46.190Z,0.00
2024-03-07T03:43:46.238Z,0.00
2024-03-07T03:44:46.261Z,0.00
2024-03-07T03:45:46.230Z,0.00
2024-03-07T03:46:46.241Z,0.00
2024-03-07T03:47:46.281Z,0.00
2024-03-07T03:48:46.263Z,0.00
2024-03-07T03:49:46.255Z,0.00
2024-03-07T03:50:46.353Z,0.00
2024-03-07T03:51:48.538Z,0.00
2024-03-07T03:52:46.284Z,0.00
2024-03-07T03:53:46.306Z,0.00
2024-03-07T03:54:46.316Z,0.00
2024-03-07T03:55:46.319Z,0.00
2024-03-07T03:56:46.352Z,0.00
2024-03-07T03:57:46.343Z,0.00
2024-03-07T03:58:46.398Z,0.00
2024-03-07T04:00:46.363Z,0.00
2024-03-07T04:01:46.452Z,0.00
2024-03-07T04:02:46.438Z,0.00
2024-03-07T04:03:46.437Z,0.00
2024-03-07T04:04:46.438Z,0.00
2024-03-07T04:05:46.467Z,0.00
2024-03-07T04:06:46.501Z,0.00
2024-03-07T04:07:46.483Z,0.00
2024-03-07T04:08:46.488Z,0.00
2024-03-07T04:09:46.466Z,0.00
2024-03-07T04:10:46.539Z,0.00
2024-03-07T04:11:46.553Z,0.00
2024-03-07T04:12:46.565Z,0.00
2024-03-07T04:13:46.518Z,0.00
2024-03-07T04:14:46.574Z,0.00
2024-03-07T04:15:46.527Z,0.00
2024-03-07T04:16:46.523Z,0.00
2024-03-07T04:17:46.609Z,0.00
2024-03-07T04:18:46.593Z,0.00
2024-03-07T04:19:46.586Z,0.00
2024-03-07T04:20:46.649Z,0.00
2024-03-07T04:21:46.573Z,0.00
2024-03-07T04:22:46.634Z,0.00
2024-03-07T04:23:46.645Z,0.00
2024-03-07T04:24:46.604Z,0.00
2024-03-07T04:25:46.609Z,0.00
2024-03-07T04:26:46.641Z,0.00
2024-03-07T04:27:46.647Z,0.00
2024-03-07T04:28:46.612Z,0.00
2024-03-07T04:29:46.741Z,0.00
2024-03-07T04:30:46.641Z,0.00
2024-03-07T04:31:46.620Z,0.00
2024-03-07T04:32:46.832Z,0.00
2024-03-07T04:33:46.676Z,0.00
2024-03-07T04:34:46.672Z,0.00
2024-03-07T04:35:46.697Z,0.00
2024-03-07T04:36:46.649Z,0.00
2024-03-07T04:37:46.663Z,0.00
2024-03-07T04:38:46.851Z,0.00
2024-03-07T04:39:46.674Z,0.00
2024-03-07T04:40:46.690Z,0.00
2024-03-07T04:41:46.715Z,0.00
2024-03-07T04:42:46.710Z,0.00
2024-03-07T04:43:46.709Z,0.00
2024-03-07T04:44:46.809Z,0.00
2024-03-07T04:45:46.723Z,0.00
2024-03-07T04:46:46.729Z,0.00
2024-03-07T04:47:46.932Z,0.00
2024-03-07T04:48:46.756Z,0.00
2024-03-07T04:49:46.752Z,0.00
2024-03-07T04:50:46.844Z,0.00
2024-03-07T04:51:46.746Z,0.00
2024-03-07T04:52:46.777Z,0.00
2024-03-07T04:53:46.879Z,0.00
2024-03-07T04:54:46.841Z,0.00
2024-03-07T04:55:46.824Z,0.00
2024-03-07T04:56:46.882Z,0.00
2024-03-07T04:57:46.836Z,0.00
2024-03-07T04:58:46.838Z,0.00
2024-03-07T04:59:47.027Z,0.00
2024-03-07T05:00:46.928Z,0.00
2024-03-07T05:01:46.854Z,0.00
2024-03-07T05:02:47.507Z,0.00
2024-03-07T05:03:46.871Z,0.00
2024-03-07T05:04:46.895Z,0.00
2024-03-07T05:05:46.965Z,0.00
2024-03-07T05:06:46.916Z,0.00
2024-03-07T05:07:46.957Z,0.00
2024-03-07T05:08:49.041Z,5.00
2024-03-07T05:09:47.009Z,0.00
2024-03-07T05:10:47.095Z,0.00
2024-03-07T05:11:47.043Z,0.00
2024-03-07T05:12:47.033Z,0.00
2024-03-07T05:13:47.019Z,0.00
2024-03-07T05:14:47.064Z,0.00
2024-03-07T05:15:47.037Z,0.00
2024-03-07T05:16:47.061Z,0.00
2024-03-07T05:17:47.237Z,0.00
2024-03-07T05:18:47.174Z,0.00
2024-03-07T05:19:47.055Z,0.00
2024-03-07T05:20:47.061Z,0.00
2024-03-07T05:21:47.074Z,0.00
2024-03-07T05:22:47.076Z,1.00
2024-03-07T05:23:47.126Z,1.00
2024-03-07T05:24:47.109Z,1.00
2024-03-07T05:25:47.202Z,1.00
2024-03-07T05:26:47.328Z,1.00
2024-03-07T05:27:47.115Z,1.00
2024-03-07T05:28:47.175Z,1.00
2024-03-07T05:29:47.174Z,2.00
2024-03-07T05:30:47.164Z,2.00
2024-03-07T05:31:47.172Z,3.00
2024-03-07T05:32:47.232Z,3.00
2024-03-07T05:33:47.250Z,4.00
2024-03-07T05:34:47.188Z,4.00
2024-03-07T05:35:47.232Z,5.00
2024-03-07T05:36:47.199Z,6.00
2024-03-07T05:37:47.195Z,7.00
2024-03-07T05:38:47.235Z,8.00
2024-03-07T05:39:47.208Z,10.00
2024-03-07T05:40:47.209Z,12.00
2024-03-07T05:41:47.665Z,14.00
2024-03-07T05:42:47.268Z,15.00
2024-03-07T05:43:47.235Z,17.00
2024-03-07T05:44:47.363Z,19.00
2024-03-07T05:45:47.236Z,22.00
2024-03-07T05:46:47.298Z,25.00
2024-03-07T05:47:47.347Z,29.00
2024-03-07T05:48:47.356Z,32.00
2024-03-07T05:49:47.270Z,35.00
2024-03-07T05:50:47.901Z,37.00
2024-03-07T05:51:47.270Z,41.00
2024-03-07T05:52:47.286Z,45.00
2024-03-07T05:53:47.333Z,51.00
2024-03-07T05:54:47.305Z,58.00
2024-03-07T05:55:47.320Z,67.00
2024-03-07T05:56:47.421Z,75.00
2024-03-07T05:57:47.324Z,81.00
2024-03-07T05:58:47.392Z,88.00
2024-03-07T05:59:47.390Z,94.00
2024-03-07T06:00:47.450Z,103.00
2024-03-07T06:01:47.371Z,116.00
2024-03-07T06:02:47.410Z,126.00
2024-03-07T06:03:47.440Z,139.00
2024-03-07T06:04:47.428Z,149.00
2024-03-07T06:05:47.439Z,160.00
2024-03-07T06:06:47.479Z,171.00
2024-03-07T06:07:47.723Z,184.00
2024-03-07T06:08:47.460Z,196.00
2024-03-07T06:09:47.484Z,210.00
2024-03-07T06:10:47.561Z,219.00
2024-03-07T06:11:47.566Z,225.00
2024-03-07T06:12:52.679Z,238.00
2024-03-07T06:13:47.538Z,247.00
2024-03-07T06:14:47.613Z,255.00
2024-03-07T06:15:47.550Z,264.00
2024-03-07T06:16:47.580Z,273.00
2024-03-07T06:17:48.014Z,281.00
2024-03-07T06:18:47.662Z,292.00
2024-03-07T06:19:47.619Z,303.00
2024-03-07T06:20:47.681Z,313.00
2024-03-07T06:21:47.735Z,323.00
2024-03-07T06:22:47.686Z,334.00
2024-03-07T06:23:47.739Z,346.00
2024-03-07T06:24:47.694Z,355.00
2024-03-07T06:25:47.718Z,365.00
2024-03-07T06:26:47.969Z,374.00
2024-03-07T06:27:47.759Z,384.00
2024-03-07T06:28:47.800Z,393.00
2024-03-07T06:29:47.812Z,403.00
2024-03-07T06:30:47.982Z,411.00
2024-03-07T06:31:47.997Z,419.00
2024-03-07T06:32:47.912Z,427.00
2024-03-07T06:33:47.907Z,437.00
2024-03-07T06:34:47.870Z,445.00
2024-03-07T06:35:47.926Z,454.00
2024-03-07T06:36:47.901Z,462.00
2024-03-07T06:37:47.914Z,470.00
2024-03-07T06:38:48.050Z,479.00
2024-03-07T06:39:48.149Z,485.00
2024-03-07T06:40:47.985Z,493.00
2024-03-07T06:41:48.068Z,502.00
2024-03-07T06:42:48.047Z,511.00
2024-03-07T06:43:48.006Z,517.00
2024-03-07T06:44:48.068Z,528.00
2024-03-07T06:45:48.021Z,541.00
2024-03-07T06:46:48.109Z,553.00
2024-03-07T06:47:48.563Z,559.00
2024-03-07T06:48:48.203Z,564.00
2024-03-07T06:49:48.087Z,572.00
2024-03-07T06:50:48.144Z,572.00
2024-03-07T06:51:48.101Z,575.00
2024-03-07T06:52:48.115Z,579.00
2024-03-07T06:53:48.174Z,577.00
2024-03-07T06:54:48.155Z,583.00
2024-03-07T06:55:48.159Z,592.00
2024-03-07T06:56:48.238Z,601.00
2024-03-07T06:57:48.181Z,636.00
2024-03-07T06:58:48.196Z,681.00
2024-03-07T06:59:48.281Z,681.00
2024-03-07T07:00:48.205Z,744.00
2024-03-07T07:01:48.266Z,844.00
2024-03-07T07:02:48.299Z,955.00
2024-03-07T07:03:48.281Z,1022.00
2024-03-07T07:04:48.286Z,994.00
2024-03-07T07:06:48.295Z,1001.00
2024-03-07T07:07:48.372Z,967.00
2024-03-07T07:08:48.389Z,930.00
2024-03-07T07:09:48.354Z,859.00
2024-03-07T07:10:48.396Z,915.00
2024-03-07T07:11:48.413Z,1126.00
2024-03-07T07:13:48.299Z,1119.00
2024-03-07T07:15:48.360Z,1436.00
2024-03-07T07:16:48.378Z,1278.00
2024-03-07T07:17:48.456Z,1173.00
2024-03-07T07:18:48.547Z,1372.00
2024-03-07T07:19:48.489Z,1437.00
2024-03-07T07:20:48.495Z,1387.00
2024-03-07T07:21:48.445Z,1380.00
2024-03-07T07:22:48.476Z,1333.00
2024-03-07T07:23:48.507Z,1242.00
2024-03-07T07:24:48.513Z,1186.00
2024-03-07T07:25:48.505Z,1283.00
2024-03-07T07:26:48.572Z,1308.00
2024-03-07T07:27:48.475Z,1461.00
2024-03-07T07:28:48.571Z,1416.00
2024-03-07T07:29:48.610Z,1185.00
2024-03-07T07:30:48.568Z,932.00
2024-03-07T07:32:48.647Z,1175.00
2024-03-07T07:33:48.671Z,1241.00
2024-03-07T07:34:48.686Z,1240.00
2024-03-07T07:35:48.669Z,1265.00
2024-03-07T07:36:48.632Z,1193.00
2024-03-07T07:37:48.671Z,1382.00
2024-03-07T07:39:48.656Z,1349.00
2024-03-07T07:40:48.800Z,1360.00
2024-03-07T07:41:48.715Z,1223.00
2024-03-07T07:42:48.719Z,1193.00
2024-03-07T07:43:48.717Z,1242.00
2024-03-07T07:44:48.827Z,1439.00
2024-03-07T07:45:48.871Z,1529.00
2024-03-07T07:46:48.821Z,1590.00
2024-03-07T07:47:48.982Z,1689.00
2024-03-07T07:48:48.841Z,1433.00
2024-03-07T07:49:48.822Z,1557.00
2024-03-07T07:50:49.021Z,1593.00
2024-03-07T07:51:48.839Z,1526.00
2024-03-07T07:52:48.881Z,1537.00
2024-03-07T07:53:48.912Z,1544.00
2024-03-07T07:54:48.956Z,1650.00
2024-03-07T07:55:48.951Z,1650.00
2024-03-07T07:56:49.050Z,1581.00
2024-03-07T07:57:48.987Z,1397.00
2024-03-07T07:58:49.001Z,1523.00
2024-03-07T07:59:49.057Z,1732.00
2024-03-07T08:00:49.084Z,1842.00
2024-03-07T08:01:49.130Z,1623.00
2024-03-07T08:02:49.149Z,1570.00
2024-03-07T08:03:49.073Z,1473.00
2024-03-07T08:05:49.160Z,1640.00
2024-03-07T08:06:49.151Z,1574.00
2024-03-07T08:07:49.083Z,1608.00
2024-03-07T08:08:49.111Z,1744.00
2024-03-07T08:09:49.107Z,1805.00
2024-03-07T08:10:49.457Z,1872.00
2024-03-07T08:11:49.232Z,1925.00
2024-03-07T08:12:49.135Z,1912.00
2024-03-07T08:13:49.169Z,1932.00
2024-03-07T08:14:49.259Z,2071.00
2024-03-07T08:15:49.213Z,2097.00
2024-03-07T08:16:49.220Z,2013.00
2024-03-07T08:17:49.312Z,1891.00
2024-03-07T08:18:49.295Z,1811.00
2024-03-07T08:19:49.243Z,1866.00
2024-03-07T08:20:50.020Z,1875.00
2024-03-07T08:21:49.261Z,1795.00
2024-03-07T08:22:49.313Z,1782.00
2024-03-07T08:23:49.337Z,1666.00
2024-03-07T08:24:49.279Z,1575.00
2024-03-07T08:25:49.305Z,1516.00
2024-03-07T08:26:49.335Z,1486.00
2024-03-07T08:27:49.341Z,1556.00
2024-03-07T08:28:49.410Z,1521.00
2024-03-07T08:29:49.365Z,1625.00
2024-03-07T08:30:49.326Z,1676.00
2024-03-07T08:31:49.357Z,1792.00
2024-03-07T08:34:15.408Z,1757.00
2024-03-07T08:35:15.457Z,1864.00
2024-03-07T08:36:15.350Z,2016.00
2024-03-07T08:37:15.370Z,2065.00
2024-03-07T08:38:15.563Z,2121.00
2024-03-07T08:40:15.354Z,2119.00
2024-03-07T08:41:16.101Z,2150.00
2024-03-07T08:42:15.458Z,2244.00
2024-03-07T08:43:15.382Z,2307.00
2024-03-07T08:44:15.397Z,2263.00
2024-03-07T08:45:15.392Z,2248.00
2024-03-07T08:46:15.482Z,2172.00
2024-03-07T08:47:15.512Z,2203.00
2024-03-07T08:49:15.491Z,2214.00
2024-03-07T08:50:15.538Z,2268.00
2024-03-07T08:51:15.742Z,2338.00
2024-03-07T08:54:15.578Z,2347.00
2024-03-07T08:55:15.642Z,2082.00
2024-03-07T08:56:15.609Z,2094.00
2024-03-07T08:57:15.543Z,2292.00
2024-03-07T08:58:16.444Z,2499.00
2024-03-07T08:59:16.147Z,2578.00
2024-03-07T09:00:15.720Z,2742.00
2024-03-07T09:01:17.577Z,2804.00
2024-03-07T09:02:15.982Z,2858.00
2024-03-07T09:03:16.859Z,2740.00
2024-03-07T09:04:15.621Z,2657.00
2024-03-07T09:05:15.732Z,2787.00
2024-03-07T09:07:41.596Z,2877.00
2024-03-07T09:08:41.615Z,3067.00
2024-03-07T09:09:41.767Z,3117.00
2024-03-07T09:10:41.606Z,2975.00
2024-03-07T09:11:41.756Z,2924.00
2024-03-07T09:12:41.625Z,2872.00
2024-03-07T09:13:41.627Z,2679.00
2024-03-07T09:14:43.509Z,2628.00
2024-03-07T09:15:41.642Z,2719.00
2024-03-07T09:16:41.664Z,2674.00
2024-03-07T09:17:41.775Z,2773.00
2024-03-07T09:18:41.745Z,2817.00
2024-03-07T09:19:41.671Z,2914.00
2024-03-07T09:20:41.755Z,3034.00
2024-03-07T09:21:41.738Z,3072.00
2024-03-07T09:22:41.700Z,3232.00
2024-03-07T09:23:41.780Z,3389.00
2024-03-07T09:24:41.819Z,3356.00
2024-03-07T09:25:41.923Z,3214.00
2024-03-07T09:26:41.822Z,3008.00
2024-03-07T09:27:41.784Z,2927.00
2024-03-07T09:28:41.819Z,3062.00
2024-03-07T09:29:41.856Z,3565.00
2024-03-07T09:30:41.845Z,3540.00
2024-03-07T09:31:41.858Z,3397.00
2024-03-07T09:32:42.072Z,3470.00
2024-03-07T09:33:41.955Z,3485.00
2024-03-07T09:34:41.876Z,3491.00
2024-03-07T09:35:42.011Z,3539.00
2024-03-07T09:36:41.913Z,3684.00
2024-03-07T09:38:42.004Z,3676.00
2024-03-07T09:39:41.988Z,3699.00
2024-03-07T09:40:41.988Z,3799.00
2024-03-07T09:41:42.031Z,3760.00
2024-03-07T09:42:41.973Z,3731.00
2024-03-07T09:43:41.988Z,3760.00
2024-03-07T09:44:42.072Z,3800.00
2024-03-07T09:45:43.103Z,3886.00
2024-03-07T09:46:42.062Z,3884.00
2024-03-07T09:47:42.152Z,4011.00
2024-03-07T09:48:42.130Z,4141.00
2024-03-07T09:49:42.079Z,4127.00
2024-03-07T09:50:42.101Z,4197.00
2024-03-07T09:51:42.104Z,3891.00
2024-03-07T09:52:42.125Z,3742.00
2024-03-07T09:53:42.154Z,3631.00
2024-03-07T09:54:42.101Z,3650.00
2024-03-07T09:55:42.112Z,3689.00
2024-03-07T09:56:42.144Z,3564.00
2024-03-07T09:57:42.212Z,3424.00
2024-03-07T09:58:42.137Z,3296.00
2024-03-07T09:59:42.176Z,3073.00
2024-03-07T10:00:42.208Z,2730.00
2024-03-07T10:01:42.182Z,2662.00
2024-03-07T10:03:42.192Z,3144.00
2024-03-07T10:04:42.234Z,3417.00
2024-03-07T10:06:42.256Z,3447.00
2024-03-07T10:07:42.281Z,3452.00
2024-03-07T10:08:42.303Z,3462.00
2024-03-07T10:09:42.266Z,3362.00
2024-03-07T10:10:42.281Z,3374.00
2024-03-07T10:11:42.359Z,3521.00
2024-03-07T10:12:42.765Z,3666.00
2024-03-07T10:13:42.403Z,3582.00
2024-03-07T10:14:42.378Z,3449.00
2024-03-07T10:15:42.330Z,3571.00
2024-03-07T10:16:42.357Z,3468.00
2024-03-07T10:17:44.613Z,3329.00
2024-03-07T10:18:42.435Z,3579.00
2024-03-07T10:19:42.383Z,3611.00
2024-03-07T10:20:42.394Z,3467.00
2024-03-07T10:21:42.425Z,3451.00
2024-03-07T10:22:42.432Z,3346.00
2024-03-07T10:23:42.509Z,3395.00
2024-03-07T10:24:42.435Z,3366.00
2024-03-07T10:25:42.453Z,3440.00
2024-03-07T10:26:42.504Z,3399.00
2024-03-07T10:27:42.510Z,3367.00
2024-03-07T10:28:42.657Z,3361.00
2024-03-07T10:29:42.729Z,3363.00
2024-03-07T10:30:42.599Z,3397.00
2024-03-07T10:31:49.271Z,3366.00
2024-03-07T10:32:42.683Z,3176.00
2024-03-07T10:34:42.649Z,3921.00
2024-03-07T10:35:42.680Z,2760.00
2024-03-07T10:36:42.694Z,2233.00
2024-03-07T10:37:42.705Z,2085.00
2024-03-07T10:38:42.748Z,2497.00
2024-03-07T10:39:42.742Z,2324.00
2024-03-07T10:40:43.125Z,1917.00
2024-03-07T10:41:42.875Z,2156.00
2024-03-07T10:42:42.808Z,1976.00
2024-03-07T10:43:42.827Z,1968.00
2024-03-07T10:44:43.067Z,1722.00
2024-03-07T10:45:42.906Z,1643.00
2024-03-07T10:46:42.895Z,1635.00
2024-03-07T10:47:42.920Z,1630.00
2024-03-07T10:48:43.027Z,1651.00
2024-03-07T10:49:42.883Z,1818.00
2024-03-07T10:50:42.916Z,1834.00
2024-03-07T10:51:42.877Z,1668.00
2024-03-07T10:52:42.893Z,1602.00
2024-03-07T10:53:42.924Z,1828.00
2024-03-07T10:54:46.855Z,2922.00
2024-03-07T10:55:42.974Z,3028.00
2024-03-07T10:56:43.198Z,2094.00
2024-03-07T10:57:42.972Z,2056.00
2024-03-07T10:58:42.982Z,3023.00
2024-03-07T10:59:43.022Z,3394.00
2024-03-07T11:00:43.004Z,2138.00
2024-03-07T11:01:43.075Z,2511.00
2024-03-07T11:02:43.098Z,2889.00
2024-03-07T11:03:43.084Z,2411.00
2024-03-07T11:04:43.524Z,2341.00
2024-03-07T11:05:43.079Z,2631.00
2024-03-07T11:06:43.031Z,3292.00
2024-03-07T11:07:43.041Z,3390.00
2024-03-07T11:09:43.102Z,2627.00
2024-03-07T11:10:43.183Z,3233.00
2024-03-07T11:11:43.193Z,3716.00
2024-03-07T11:12:43.142Z,4012.00
2024-03-07T11:14:43.243Z,3472.00
2024-03-07T11:15:43.176Z,3504.00
2024-03-07T11:16:43.188Z,3992.00
2024-03-07T11:17:43.296Z,3818.00
2024-03-07T11:18:43.212Z,3670.00
2024-03-07T11:19:43.142Z,3687.00
2024-03-07T11:20:43.157Z,3671.00
2024-03-07T11:21:43.143Z,3810.00
2024-03-07T11:22:43.162Z,3504.00
2024-03-07T11:25:43.222Z,4054.00
2024-03-07T11:26:43.279Z,4040.00
2024-03-07T11:27:43.279Z,3562.00
2024-03-07T11:28:43.302Z,2980.00
2024-03-07T11:29:43.352Z,2565.00
2024-03-07T11:30:43.300Z,2187.00
2024-03-07T11:31:43.309Z,2045.00
2024-03-07T11:32:43.524Z,2219.00
2024-03-07T11:33:43.693Z,2216.00
2024-03-07T11:34:43.350Z,1937.00
2024-03-07T11:35:43.334Z,1777.00
2024-03-07T11:36:43.335Z,1675.00
2024-03-07T11:37:43.348Z,1593.00
2024-03-07T11:38:43.535Z,1680.00
2024-03-07T11:39:44.303Z,1748.00
2024-03-07T11:40:43.367Z,1810.00
2024-03-07T11:41:43.442Z,1765.00
2024-03-07T11:42:43.400Z,1749.00
2024-03-07T11:43:43.397Z,1869.00
2024-03-07T11:44:43.449Z,1853.00
2024-03-07T11:45:43.426Z,1773.00
2024-03-07T11:46:43.477Z,1872.00
2024-03-07T11:47:43.681Z,1987.00
2024-03-07T11:48:43.738Z,2057.00
2024-03-07T11:49:43.545Z,2058.00
2024-03-07T11:50:43.648Z,2225.00
2024-03-07T11:52:43.560Z,2773.00
2024-03-07T11:53:43.599Z,3102.00
2024-03-07T11:54:43.569Z,3360.00
2024-03-07T11:55:43.568Z,3702.00
2024-03-07T11:56:43.729Z,4272.00
2024-03-07T11:57:43.581Z,4723.00
2024-03-07T11:58:43.615Z,4858.00
2024-03-07T11:59:43.648Z,4875.00
2024-03-07T12:01:43.542Z,5362.00
2024-03-07T12:02:43.667Z,5322.00
2024-03-07T12:03:43.580Z,5001.00
2024-03-07T12:04:43.631Z,4641.00
2024-03-07T12:05:43.734Z,4055.00
2024-03-07T12:07:43.674Z,4099.00
2024-03-07T12:08:43.773Z,3664.00
2024-03-07T12:10:46.089Z,2432.00
2024-03-07T12:11:43.772Z,2180.00
2024-03-07T12:12:43.782Z,2162.00
2024-03-07T12:13:43.630Z,2229.00
2024-03-07T12:14:43.673Z,2214.00
2024-03-07T12:15:43.648Z,2169.00
2024-03-07T12:16:44.174Z,2160.00
2024-03-07T12:17:43.798Z,2177.00
2024-03-07T12:18:43.864Z,2326.00
2024-03-07T12:19:43.704Z,2539.00
2024-03-07T12:20:43.864Z,2698.00
2024-03-07T12:21:43.833Z,2846.00
2024-03-07T12:22:43.766Z,3005.00
2024-03-07T12:24:43.830Z,3472.00
2024-03-07T12:25:43.802Z,3609.00
2024-03-07T12:26:43.864Z,3681.00
2024-03-07T12:27:43.847Z,3792.00
2024-03-07T12:28:43.897Z,3893.00
2024-03-07T12:29:43.899Z,3900.00
2024-03-07T12:30:43.865Z,3821.00
2024-03-07T12:31:43.834Z,3629.00
2024-03-07T12:32:43.883Z,3578.00
2024-03-07T12:33:43.970Z,3561.00
2024-03-07T12:34:43.873Z,3453.00
2024-03-07T12:35:44.022Z,3262.00
2024-03-07T12:36:43.860Z,3127.00
2024-03-07T12:37:43.999Z,3180.00
2024-03-07T12:38:43.988Z,3250.00
2024-03-07T12:39:43.916Z,3239.00
2024-03-07T12:40:46.530Z,3256.00
2024-03-07T12:41:44.019Z,3306.00
2024-03-07T12:42:43.956Z,3256.00
2024-03-07T12:43:43.950Z,3073.00
2024-03-07T12:44:44.060Z,2964.00
2024-03-07T12:45:44.016Z,2988.00
2024-03-07T12:46:46.874Z,2985.00
2024-03-07T12:47:44.082Z,2925.00
2024-03-07T12:48:44.106Z,2851.00
2024-03-07T12:49:44.004Z,2805.00
2024-03-07T12:50:44.035Z,2807.00
2024-03-07T12:51:43.989Z,2839.00
2024-03-07T12:52:46.877Z,2862.00
2024-03-07T12:54:44.005Z,2656.00
2024-03-07T12:55:43.912Z,2515.00
2024-03-07T12:56:43.964Z,2478.00
2024-03-07T12:57:44.001Z,2484.00
2024-03-07T12:58:47.049Z,2560.00
2024-03-07T13:00:44.012Z,2762.00
2024-03-07T13:01:44.074Z,2877.00
2024-03-07T13:02:44.106Z,2969.00
2024-03-07T13:03:44.046Z,2885.00
2024-03-07T13:04:44.651Z,2740.00
2024-03-07T13:05:44.294Z,2574.00
2024-03-07T13:06:44.094Z,2422.00
2024-03-07T13:08:44.258Z,2083.00
2024-03-07T13:09:44.188Z,2093.00
2024-03-07T13:10:44.439Z,2218.00
2024-03-07T13:11:44.300Z,2397.00
2024-03-07T13:12:44.239Z,2535.00